createdAt,value
2022-11-01T00:00:59.142Z,26.77
2022-11-01T00:03:45.698Z,28.00
2022-11-01T00:06:31.950Z,27.67
2022-11-01T00:09:20.035Z,26.87
2022-11-01T00:12:06.722Z,26.60
2022-11-01T00:14:53.151Z,26.00
2022-11-01T00:17:39.672Z,26.93
2022-11-01T00:20:26.210Z,27.17
2022-11-01T00:23:12.506Z,26.77
2022-11-01T00:26:02.062Z,28.47
2022-11-01T00:28:49.279Z,28.43
2022-11-01T00:31:35.876Z,26.10
2022-11-01T00:34:22.203Z,26.60
2022-11-01T00:37:08.435Z,25.77
2022-11-01T00:39:54.491Z,26.83
2022-11-01T00:42:42.119Z,25.77
2022-11-01T00:45:28.261Z,24.43
2022-11-01T00:48:15.010Z,26.30
2022-11-01T00:51:01.680Z,25.40
2022-11-01T00:53:48.311Z,25.57
2022-11-01T00:56:34.453Z,24.27
2022-11-01T00:59:22.349Z,25.33
2022-11-01T01:02:08.782Z,24.97
2022-11-01T01:04:55.459Z,23.77
2022-11-01T01:07:41.832Z,24.17
2022-11-01T01:10:28.678Z,24.70
2022-11-01T01:13:14.827Z,23.30
2022-11-01T01:16:07.547Z,22.53
2022-11-01T01:18:53.930Z,23.20
2022-11-01T01:21:40.035Z,22.37
2022-11-01T01:24:26.321Z,24.13
2022-11-01T01:27:13.251Z,22.27
2022-11-01T01:29:59.727Z,22.57
2022-11-01T01:32:47.742Z,22.30
2022-11-01T01:35:34.228Z,22.03
2022-11-01T01:38:20.767Z,21.73
2022-11-01T01:41:24.704Z,22.23
2022-11-01T01:44:57.263Z,20.87
2022-11-01T01:47:46.461Z,20.73
2022-11-01T01:50:37.574Z,20.43
2022-11-01T01:53:28.354Z,19.87
2022-11-01T01:56:19.130Z,20.10
2022-11-01T01:59:08.603Z,21.23
2022-11-01T02:01:55.546Z,20.83
2022-11-01T02:04:45.356Z,20.33
2022-11-01T02:07:33.050Z,19.10
2022-11-01T02:10:20.532Z,20.87
2022-11-01T02:13:13.005Z,19.63
2022-11-01T02:16:38.732Z,19.30
2022-11-01T02:20:04.458Z,19.73
2022-11-01T02:23:25.396Z,19.43
2022-11-01T02:26:32.369Z,19.93
2022-11-01T02:29:45.496Z,20.80
2022-11-01T02:32:40.635Z,20.13
2022-11-01T02:35:40.115Z,19.63
2022-11-01T02:38:30.241Z,20.60
2022-11-01T02:41:21.499Z,20.40
2022-11-01T02:44:13.341Z,22.10
2022-11-01T02:47:01.366Z,21.77
2022-11-01T02:49:53.085Z,22.30
2022-11-01T02:52:41.666Z,21.47
2022-11-01T02:55:30.749Z,20.87
2022-11-01T02:58:23.327Z,22.03
2022-11-01T03:01:15.484Z,20.60
2022-11-01T03:04:03.008Z,21.10
2022-11-01T03:06:53.914Z,21.20
2022-11-01T03:09:41.732Z,21.07
2022-11-01T03:12:33.847Z,21.30
2022-11-01T03:15:26.840Z,20.53
2022-11-01T03:18:19.071Z,21.73
2022-11-01T03:21:15.582Z,20.43
2022-11-01T03:24:10.886Z,21.27
2022-11-01T03:27:06.135Z,21.50
2022-11-01T03:30:06.126Z,22.13
2022-11-01T03:32:55.878Z,21.03
2022-11-01T03:35:45.898Z,22.70
2022-11-01T03:38:37.489Z,21.77
2022-11-01T03:41:27.749Z,22.27
2022-11-01T03:44:14.888Z,20.77
2022-11-01T03:47:01.388Z,21.87
2022-11-01T03:49:47.794Z,21.27
2022-11-01T03:52:34.455Z,20.93
2022-11-01T03:55:22.291Z,20.67
2022-11-01T03:58:10.818Z,20.57
2022-11-01T04:00:56.994Z,21.37
2022-11-01T04:03:44.109Z,21.40
2022-11-01T04:06:30.364Z,20.17
2022-11-01T04:09:16.871Z,21.10
2022-11-01T04:12:03.301Z,20.00
2022-11-01T04:15:08.451Z,19.03
2022-11-01T04:18:22.316Z,18.60
2022-11-01T04:21:12.368Z,18.63
2022-11-01T04:23:58.715Z,18.53
2022-11-01T04:26:45.124Z,17.77
2022-11-01T04:29:31.698Z,19.33
2022-11-01T04:32:19.216Z,18.53
2022-11-01T04:37:58.596Z,17.73
2022-11-01T04:40:45.215Z,17.37
2022-11-01T04:43:31.932Z,19.97
2022-11-01T04:46:18.144Z,20.23
2022-11-01T04:49:06.055Z,19.13
2022-11-01T04:51:52.388Z,18.93
2022-11-01T04:54:38.549Z,19.40
2022-11-01T04:57:25.019Z,18.20
2022-11-01T05:00:13.734Z,19.30
2022-11-01T05:03:04.587Z,19.43
2022-11-01T05:05:52.844Z,17.73
2022-11-01T05:08:39.158Z,18.60
2022-11-01T05:11:26.289Z,17.43
2022-11-01T05:14:12.638Z,17.97
2022-11-01T05:16:59.839Z,17.07
2022-11-01T05:19:46.562Z,18.33
2022-11-01T05:22:35.751Z,25.23
2022-11-01T05:25:21.970Z,26.43
2022-11-01T05:28:10.411Z,18.60
2022-11-01T05:30:58.404Z,17.33
2022-11-01T05:33:45.016Z,18.03
2022-11-01T05:36:31.652Z,18.63
2022-11-01T05:39:19.599Z,17.83
2022-11-01T05:42:06.105Z,17.93
2022-11-01T05:44:52.447Z,17.87
2022-11-01T05:47:40.353Z,22.80
2022-11-01T05:50:26.883Z,21.97
2022-11-01T05:53:13.450Z,37.93
2022-11-01T05:56:01.567Z,28.13
2022-11-01T05:58:48.333Z,44.73
2022-11-01T06:01:34.663Z,20.97
2022-11-01T06:04:22.973Z,18.33
2022-11-01T06:07:09.509Z,19.27
2022-11-01T06:09:55.837Z,18.70
2022-11-01T06:12:43.686Z,21.50
2022-11-01T06:15:33.094Z,21.50
2022-11-01T06:18:22.028Z,19.43
2022-11-01T06:21:08.216Z,24.13
2022-11-01T06:23:54.466Z,21.10
2022-11-01T06:26:40.717Z,19.50
2022-11-01T06:29:28.635Z,17.50
2022-11-01T06:32:14.844Z,18.53
2022-11-01T06:35:01.365Z,25.80
2022-11-01T06:37:47.528Z,22.83
2022-11-01T06:40:34.315Z,19.23
2022-11-01T06:43:20.923Z,18.20
2022-11-01T06:46:09.051Z,20.73
2022-11-01T06:48:55.354Z,20.60
2022-11-01T06:51:42.121Z,18.77
2022-11-01T06:54:28.375Z,17.87
2022-11-01T06:57:14.808Z,20.13
2022-11-01T07:00:01.168Z,19.27
2022-11-01T07:02:49.029Z,17.50
2022-11-01T07:05:37.469Z,19.23
2022-11-01T07:08:24.179Z,17.73
2022-11-01T07:11:10.820Z,18.13
2022-11-01T07:13:59.165Z,17.90
2022-11-01T07:16:45.364Z,19.30
2022-11-01T07:19:32.983Z,17.60
2022-11-01T07:22:19.290Z,28.37
2022-11-01T07:25:06.452Z,21.17
2022-11-01T07:27:52.683Z,20.38
2022-11-01T07:30:39.489Z,18.87
2022-11-01T07:33:25.891Z,20.30
2022-11-01T07:36:13.628Z,18.80
2022-11-01T07:38:59.878Z,18.15
2022-11-01T07:41:46.351Z,16.97
2022-11-01T07:44:32.755Z,18.07
2022-11-01T07:47:19.346Z,17.63
2022-11-01T07:50:06.722Z,41.65
2022-11-01T07:53:02.095Z,18.42
2022-11-01T07:55:49.006Z,17.27
2022-11-01T07:58:35.542Z,17.05
2022-11-01T08:01:22.096Z,16.35
2022-11-01T08:04:08.723Z,16.75
2022-11-01T08:06:55.145Z,15.37
2022-11-01T08:09:44.125Z,15.68
2022-11-01T08:12:30.279Z,14.82
2022-11-01T08:15:16.875Z,15.50
2022-11-01T08:18:03.558Z,14.43
2022-11-01T08:20:50.215Z,15.20
2022-11-01T08:23:36.827Z,13.93
2022-11-01T08:26:24.363Z,16.35
2022-11-01T08:29:11.000Z,13.02
2022-11-01T08:31:57.382Z,14.30
2022-11-01T08:34:43.531Z,14.45
2022-11-01T08:37:30.071Z,14.30
2022-11-01T08:40:16.355Z,14.30
2022-11-01T08:43:04.782Z,13.35
2022-11-01T08:45:51.403Z,12.55
2022-11-01T08:48:38.192Z,13.10
2022-11-01T08:51:26.059Z,12.50
2022-11-01T08:54:12.318Z,12.65
2022-11-01T08:56:58.912Z,12.50
2022-11-01T08:59:46.818Z,26.25
2022-11-01T09:02:33.115Z,19.38
2022-11-01T09:05:19.651Z,11.30
2022-11-01T09:08:06.542Z,11.07
2022-11-01T09:10:53.033Z,10.77
2022-11-01T09:13:39.291Z,9.65
2022-11-01T09:16:27.042Z,10.15
2022-11-01T09:19:13.211Z,10.00
2022-11-01T09:21:59.535Z,9.15
2022-11-01T09:24:46.235Z,9.57
2022-11-01T09:27:32.948Z,9.82
2022-11-01T09:30:19.617Z,9.00
2022-11-01T09:33:08.519Z,8.23
2022-11-01T09:35:59.359Z,8.90
2022-11-01T09:38:46.430Z,8.55
2022-11-01T09:41:36.442Z,8.07
2022-11-01T09:44:27.546Z,8.63
2022-11-01T09:47:17.132Z,7.28
2022-11-01T09:50:12.805Z,7.55
2022-11-01T09:53:00.378Z,7.68
2022-11-01T09:55:51.027Z,8.00
2022-11-01T09:58:49.152Z,9.43
2022-11-01T10:01:50.631Z,16.35
2022-11-01T10:05:14.561Z,8.30
2022-11-01T10:08:12.704Z,9.80
2022-11-01T10:11:14.491Z,7.60
2022-11-01T10:14:11.494Z,8.35
2022-11-01T10:17:09.486Z,7.68
2022-11-01T10:19:56.178Z,8.32
2022-11-01T10:22:48.498Z,8.85
2022-11-01T10:25:39.892Z,8.75
2022-11-01T10:28:33.263Z,9.05
2022-11-01T10:31:24.298Z,8.73
2022-11-01T10:34:21.662Z,9.52
2022-11-01T10:37:17.320Z,8.95
2022-11-01T10:40:13.942Z,7.80
2022-11-01T10:43:01.075Z,8.93
2022-11-01T10:45:50.854Z,9.00
2022-11-01T10:48:42.401Z,8.95
2022-11-01T10:51:32.566Z,20.92
2022-11-01T10:54:23.454Z,16.83
2022-11-01T10:57:15.499Z,8.23
2022-11-01T11:00:06.375Z,8.63
2022-11-01T11:02:56.258Z,8.15
2022-11-01T11:05:42.647Z,7.43
2022-11-01T11:08:29.123Z,7.50
2022-11-01T11:11:17.603Z,7.60
2022-11-01T11:14:09.312Z,6.85
2022-11-01T11:16:58.327Z,6.65
2022-11-01T11:19:47.558Z,6.32
2022-11-01T11:22:39.658Z,6.82
2022-11-01T11:25:34.862Z,6.18
2022-11-01T11:28:30.485Z,6.50
2022-11-01T11:31:24.176Z,5.35
2022-11-01T11:34:20.994Z,6.15
2022-11-01T11:37:09.807Z,5.03
2022-11-01T11:40:15.083Z,4.82
2022-11-01T11:43:22.679Z,4.85
2022-11-01T11:46:16.046Z,4.30
2022-11-01T11:49:06.956Z,4.32
2022-11-01T11:51:54.038Z,4.20
2022-11-01T11:54:43.487Z,4.15
2022-11-01T11:57:30.221Z,3.90
2022-11-01T12:00:23.671Z,4.00
2022-11-01T12:03:14.306Z,3.83
2022-11-01T12:06:09.502Z,3.42
2022-11-01T12:08:57.799Z,4.05
2022-11-01T12:11:47.424Z,3.35
2022-11-01T12:14:37.586Z,3.35
2022-11-01T12:17:31.281Z,3.10
2022-11-01T12:20:20.295Z,2.63
2022-11-01T12:23:15.264Z,3.42
2022-11-01T12:26:05.521Z,2.83
2022-11-01T12:28:59.230Z,3.13
2022-11-01T12:31:46.791Z,3.30
2022-11-01T12:34:39.832Z,3.17
2022-11-01T12:37:36.031Z,2.83
2022-11-01T12:40:27.886Z,3.28
2022-11-01T12:43:20.923Z,3.10
2022-11-01T12:46:14.858Z,2.75
2022-11-01T12:49:06.038Z,3.33
2022-11-01T12:51:57.432Z,3.53
2022-11-01T12:54:48.101Z,3.00
2022-11-01T12:57:36.062Z,5.88
2022-11-01T13:00:23.527Z,4.68
2022-11-01T13:03:24.950Z,3.00
2022-11-01T13:06:44.879Z,2.80
2022-11-01T13:09:40.167Z,3.60
2022-11-01T13:12:41.672Z,2.90
2022-11-01T13:15:35.758Z,2.78
2022-11-01T13:18:30.753Z,3.10
2022-11-01T13:21:28.749Z,2.95
2022-11-01T13:24:23.763Z,2.90
2022-11-01T13:27:16.401Z,3.25
2022-11-01T13:30:06.973Z,2.60
2022-11-01T13:32:59.040Z,3.45
2022-11-01T13:35:55.107Z,7.15
2022-11-01T13:38:49.507Z,2.88
2022-11-01T13:41:41.954Z,3.00
2022-11-01T13:44:33.582Z,4.40
2022-11-01T13:47:41.645Z,3.20
2022-11-01T13:50:58.814Z,2.75
2022-11-01T13:53:52.981Z,3.15
2022-11-01T13:56:43.723Z,3.45
2022-11-01T13:59:33.027Z,3.13
2022-11-01T14:02:55.431Z,3.10
2022-11-01T14:05:45.739Z,4.10
2022-11-01T14:08:38.671Z,4.85
2022-11-01T14:11:48.625Z,3.67
2022-11-01T14:14:53.628Z,3.00
2022-11-01T14:18:04.549Z,2.78
2022-11-01T14:20:53.871Z,3.35
2022-11-01T14:23:51.087Z,3.15
2022-11-01T14:26:45.306Z,3.10
2022-11-01T14:29:35.936Z,5.75
2022-11-01T14:32:25.144Z,3.80
2022-11-01T14:35:21.863Z,3.75
2022-11-01T14:38:15.706Z,4.03
2022-11-01T14:41:02.847Z,3.30
2022-11-01T14:43:52.840Z,2.85
2022-11-01T14:46:46.429Z,3.38
2022-11-01T14:49:39.936Z,3.65
2022-11-01T14:52:34.418Z,3.67
2022-11-01T14:55:28.816Z,3.65
2022-11-01T14:58:23.708Z,3.20
2022-11-01T15:01:14.987Z,4.40
2022-11-01T15:04:01.870Z,3.15
2022-11-01T15:06:48.930Z,3.10
2022-11-01T15:09:35.590Z,3.78
2022-11-01T15:12:23.376Z,3.85
2022-11-01T15:15:15.597Z,3.75
2022-11-01T15:18:06.226Z,4.50
2022-11-01T15:20:55.971Z,3.80
2022-11-01T15:23:47.250Z,3.72
2022-11-01T15:26:34.335Z,3.80
2022-11-01T15:29:24.749Z,4.22
2022-11-01T15:32:23.367Z,4.20
2022-11-01T15:35:22.641Z,5.25
2022-11-01T15:38:20.949Z,4.32
2022-11-01T15:41:27.924Z,3.78
2022-11-01T15:44:21.986Z,4.15
2022-11-01T15:47:17.639Z,3.60
2022-11-01T15:50:07.343Z,3.90
2022-11-01T15:52:54.415Z,4.10
2022-11-01T15:55:45.669Z,4.22
2022-11-01T15:58:37.990Z,4.43
2022-11-01T16:01:26.160Z,4.82
2022-11-01T16:04:17.407Z,4.63
2022-11-01T16:07:06.728Z,4.30
2022-11-01T16:09:56.504Z,4.40
2022-11-01T16:12:46.448Z,3.83
2022-11-01T16:15:34.590Z,3.97
2022-11-01T16:18:25.806Z,4.68
2022-11-01T16:21:28.874Z,4.22
2022-11-01T16:24:21.406Z,5.65
2022-11-01T16:27:08.652Z,4.50
2022-11-01T16:29:55.317Z,4.70
2022-11-01T16:32:41.747Z,4.60
2022-11-01T16:35:35.319Z,4.72
2022-11-01T16:38:27.974Z,5.47
2022-11-01T16:41:20.235Z,5.47
2022-11-01T16:44:14.239Z,5.10
2022-11-01T16:47:00.478Z,5.50
2022-11-01T16:49:48.743Z,5.80
2022-11-01T16:52:36.585Z,5.05
2022-11-01T16:55:26.986Z,5.05
2022-11-01T16:58:18.237Z,5.30
2022-11-01T17:01:05.145Z,4.95
2022-11-01T17:03:52.631Z,5.07
2022-11-01T17:06:39.510Z,4.68
2022-11-01T17:09:31.468Z,4.75
2022-11-01T17:12:17.613Z,4.78
2022-11-01T17:15:04.259Z,5.25
2022-11-01T17:17:51.117Z,5.65
2022-11-01T17:20:39.840Z,5.97
2022-11-01T17:23:28.174Z,5.80
2022-11-01T17:26:18.175Z,6.13
2022-11-01T17:29:04.642Z,5.55
2022-11-01T17:31:51.963Z,6.57
2022-11-01T17:34:39.350Z,5.75
2022-11-01T17:37:29.954Z,6.20
2022-11-01T17:40:20.610Z,5.82
2022-11-01T17:43:10.377Z,6.25
2022-11-01T17:45:59.349Z,7.60
2022-11-01T17:48:45.770Z,8.05
2022-11-01T17:51:32.004Z,6.55
2022-11-01T17:54:18.590Z,6.03
2022-11-01T17:57:04.868Z,7.22
2022-11-01T17:59:52.802Z,6.72
2022-11-01T18:02:39.083Z,6.90
2022-11-01T18:05:25.523Z,7.22
2022-11-01T18:08:18.419Z,8.10
2022-11-01T18:11:13.720Z,5.93
2022-11-01T18:14:06.811Z,5.97
2022-11-01T18:17:01.440Z,6.15
2022-11-01T18:19:54.679Z,6.05
2022-11-01T18:22:50.420Z,6.03
2022-11-01T18:25:40.389Z,5.70
2022-11-01T18:28:27.822Z,6.03
2022-11-01T18:31:18.917Z,4.75
2022-11-01T18:34:13.549Z,5.72
2022-11-01T18:37:09.996Z,5.68
2022-11-01T18:40:04.724Z,7.18
2022-11-01T18:42:52.780Z,6.43
2022-11-01T18:45:58.779Z,6.47
2022-11-01T18:48:47.814Z,6.32
2022-11-01T18:51:38.252Z,6.10
2022-11-01T18:54:26.934Z,5.85
2022-11-01T18:57:17.195Z,5.63
2022-11-01T19:00:03.944Z,6.47
2022-11-01T19:02:50.287Z,6.40
2022-11-01T19:05:37.221Z,5.88
2022-11-01T19:08:27.278Z,5.80
2022-11-01T19:11:14.186Z,5.50
2022-11-01T19:14:02.112Z,5.27
2022-11-01T19:16:49.028Z,5.47
2022-11-01T19:19:43.156Z,5.53
2022-11-01T19:22:35.063Z,7.97
2022-11-01T19:25:25.177Z,5.20
2022-11-01T19:28:18.002Z,3.83
2022-11-01T19:31:14.989Z,4.47
2022-11-01T19:34:04.516Z,7.33
2022-11-01T19:36:52.553Z,8.00
2022-11-01T19:39:41.553Z,6.60
2022-11-01T19:42:31.467Z,4.23
2022-11-01T19:45:31.848Z,3.90
2022-11-01T19:48:22.235Z,4.10
2022-11-01T19:51:15.881Z,3.67
2022-11-01T19:54:02.159Z,4.53
2022-11-01T19:56:49.160Z,4.30
2022-11-01T19:59:37.277Z,7.83
2022-11-01T20:02:24.084Z,25.07
2022-11-01T20:05:26.417Z,5.30
2022-11-01T20:08:21.374Z,3.30
2022-11-01T20:11:08.525Z,3.77
2022-11-01T20:13:54.881Z,3.00
2022-11-01T20:16:43.058Z,2.83
2022-11-01T20:19:31.140Z,3.40
2022-11-01T20:22:17.854Z,3.13
2022-11-01T20:25:04.472Z,3.27
2022-11-01T20:27:50.852Z,3.30
2022-11-01T20:30:37.331Z,3.33
2022-11-01T20:33:25.557Z,3.10
2022-11-01T20:36:11.951Z,3.00
2022-11-01T20:38:58.413Z,2.90
2022-11-01T20:41:45.132Z,3.70
2022-11-01T20:44:31.435Z,3.13
2022-11-01T20:47:17.811Z,2.90
2022-11-01T20:50:07.354Z,3.80
2022-11-01T20:52:53.895Z,2.40
2022-11-01T20:55:40.521Z,2.40
2022-11-01T20:58:27.830Z,2.40
2022-11-01T21:01:15.581Z,3.10
2022-11-01T21:04:02.227Z,3.10
2022-11-01T21:06:50.264Z,3.20
2022-11-01T21:09:40.715Z,15.60
2022-11-01T21:12:42.406Z,17.63
2022-11-01T21:15:38.164Z,3.13
2022-11-01T21:18:36.149Z,2.63
2022-11-01T21:21:45.262Z,2.90
2022-11-01T21:24:40.792Z,2.67
2022-11-01T21:30:21.943Z,2.77
2022-11-01T21:33:28.520Z,2.77
2022-11-01T21:36:27.032Z,2.80
2022-11-01T21:39:16.360Z,2.70
2022-11-01T21:42:25.644Z,2.80
2022-11-01T21:45:29.088Z,2.67
2022-11-01T21:48:20.383Z,5.23
2022-11-01T21:51:07.141Z,4.53
2022-11-01T21:53:53.615Z,3.30
2022-11-01T21:56:39.877Z,2.57
2022-11-01T21:59:28.783Z,2.80
2022-11-01T22:02:16.410Z,2.80
2022-11-01T22:05:02.986Z,12.73
2022-11-01T22:07:49.346Z,9.07
2022-11-01T22:10:35.573Z,3.03
2022-11-01T22:13:21.767Z,2.83
2022-11-01T22:16:09.709Z,3.17
2022-11-01T22:18:56.361Z,2.47
2022-11-01T22:21:42.754Z,2.60
2022-11-01T22:24:29.574Z,2.30
2022-11-01T22:27:16.287Z,2.10
2022-11-01T22:30:02.690Z,2.47
2022-11-01T22:32:50.505Z,2.20
2022-11-01T22:35:36.805Z,2.83
2022-11-01T22:38:24.043Z,2.80
2022-11-01T22:41:14.415Z,3.43
2022-11-01T22:44:03.676Z,5.20
2022-11-01T22:46:56.874Z,2.13
2022-11-01T22:49:51.946Z,1.97
2022-11-01T22:52:41.068Z,2.30
2022-11-01T22:55:28.799Z,2.27
2022-11-01T22:58:31.587Z,2.30
2022-11-01T23:01:25.910Z,2.10
2022-11-01T23:04:22.095Z,2.40
2022-11-01T23:07:23.626Z,2.00
2022-11-01T23:10:25.819Z,2.30
2022-11-01T23:13:36.859Z,2.43
2022-11-01T23:16:26.349Z,2.27
2022-11-01T23:19:14.355Z,2.27
2022-11-01T23:22:00.845Z,2.30
2022-11-01T23:24:50.505Z,2.43
2022-11-01T23:27:37.355Z,2.67
2022-11-01T23:30:23.969Z,3.30
2022-11-01T23:33:12.676Z,6.13
2022-11-01T23:36:01.099Z,3.67
2022-11-01T23:38:50.570Z,2.43
2022-11-01T23:41:42.377Z,2.10
2022-11-01T23:44:30.622Z,2.00
2022-11-01T23:47:23.396Z,2.87
2022-11-01T23:50:17.165Z,2.23
2022-11-01T23:53:07.312Z,2.10
2022-11-01T23:55:55.819Z,2.10
2022-11-01T23:58:43.594Z,2.30
